Aviation Digital Data Service (ADDS)

Output produced by METARs form (1024 UTC 26 January 2015)
found at http://aviationweather.gov/adds/metars/
 
KATL 260933Z 2610/2712 27008KT P6SM BKN025 
     FM261100 29010KT P6SM OVC015 
     FM261500 31015G25KT P6SM BKN025 
     FM261800 31016G26KT P6SM BKN050 
     FM270000 31011KT P6SM SCT060 BKN120 
     FM270900 30007KT P6SM BKN050